createdAt,value
2019-03-31T00:00:02.263Z,1013.70
2019-03-31T00:01:08.402Z,1013.69
2019-03-31T00:02:03.230Z,1013.74
2019-03-31T00:03:02.318Z,1013.74
2019-03-31T00:04:02.190Z,1013.80
2019-03-31T00:05:02.252Z,1013.80
2019-03-31T00:06:02.166Z,1013.84
2019-03-31T00:07:02.242Z,1013.88
2019-03-31T00:08:02.162Z,1013.87
2019-03-31T00:09:02.265Z,1013.86
2019-03-31T00:10:02.148Z,1013.91
2019-03-31T00:11:02.169Z,1013.86
2019-03-31T00:12:02.103Z,1013.88
2019-03-31T00:13:02.184Z,1013.87
2019-03-31T00:14:02.075Z,1013.84
2019-03-31T00:15:02.265Z,1013.93
2019-03-31T00:16:02.102Z,1013.86
2019-03-31T00:17:02.104Z,1013.87
2019-03-31T00:18:02.037Z,1013.92
2019-03-31T00:19:02.122Z,1013.90
2019-03-31T00:20:02.049Z,1013.93
2019-03-31T00:21:02.035Z,1013.87
2019-03-31T00:22:02.001Z,1013.88
2019-03-31T00:23:02.053Z,1013.91
2019-03-31T00:24:02.037Z,1013.87
2019-03-31T00:25:02.107Z,1013.84
2019-03-31T00:26:01.947Z,1013.88
2019-03-31T00:27:02.111Z,1013.82
2019-03-31T00:28:01.975Z,1013.89
2019-03-31T00:29:02.002Z,1013.89
2019-03-31T00:30:01.970Z,1013.90
2019-03-31T00:31:02.005Z,1014.00
2019-03-31T00:32:01.891Z,1013.93
2019-03-31T00:33:01.915Z,1013.96
2019-03-31T00:34:01.859Z,1013.92
2019-03-31T00:35:02.166Z,1013.89
2019-03-31T00:36:01.832Z,1013.84
2019-03-31T00:37:01.971Z,1013.84
2019-03-31T00:38:01.841Z,1013.84
2019-03-31T00:39:01.852Z,1013.90
2019-03-31T00:40:01.824Z,1013.89
2019-03-31T00:41:01.890Z,1013.85
2019-03-31T00:42:01.769Z,1013.91
2019-03-31T00:43:01.876Z,1013.90
2019-03-31T00:44:01.774Z,1013.93
2019-03-31T00:45:01.797Z,1013.99
2019-03-31T00:46:01.775Z,1013.95
2019-03-31T00:47:02.333Z,1013.97
2019-03-31T00:48:01.718Z,1014.10
2019-03-31T00:49:01.820Z,1014.12
2019-03-31T00:50:01.681Z,1014.14
2019-03-31T00:51:01.758Z,1014.12
2019-03-31T00:52:01.694Z,1014.13
2019-03-31T00:53:01.745Z,1014.14
2019-03-31T00:54:01.636Z,1014.14
2019-03-31T00:55:01.653Z,1014.13
2019-03-31T00:56:01.654Z,1014.09
2019-03-31T00:57:01.672Z,1014.13
2019-03-31T00:58:01.607Z,1014.13
2019-03-31T00:59:01.687Z,1014.15
2019-03-31T01:00:01.597Z,1014.12
2019-03-31T01:01:01.642Z,1014.19
2019-03-31T01:02:01.550Z,1014.17
2019-03-31T01:03:01.609Z,1014.22
2019-03-31T01:04:01.525Z,1014.20
2019-03-31T01:05:01.620Z,1014.17
2019-03-31T01:06:01.540Z,1014.11
2019-03-31T01:07:01.534Z,1014.19
2019-03-31T01:08:01.501Z,1014.14
2019-03-31T01:09:01.555Z,1014.14
2019-03-31T01:10:01.458Z,1014.15
2019-03-31T01:11:01.587Z,1014.17
2019-03-31T01:12:01.446Z,1014.20
2019-03-31T01:13:01.478Z,1014.14
2019-03-31T01:14:01.416Z,1014.17
2019-03-31T01:15:01.492Z,1014.17
2019-03-31T01:16:01.423Z,1014.12
2019-03-31T01:17:01.548Z,1014.17
2019-03-31T01:18:01.412Z,1014.14
2019-03-31T01:19:01.410Z,1014.19
2019-03-31T01:20:01.358Z,1014.22
2019-03-31T01:21:01.432Z,1014.20
2019-03-31T01:22:01.436Z,1014.23
2019-03-31T01:23:01.439Z,1014.20
2019-03-31T01:24:01.330Z,1014.18
2019-03-31T01:25:01.354Z,1014.14
2019-03-31T01:26:01.277Z,1014.19
2019-03-31T01:27:01.413Z,1014.21
2019-03-31T01:28:01.283Z,1014.28
2019-03-31T01:29:01.384Z,1014.29
2019-03-31T01:30:01.246Z,1014.19
2019-03-31T01:31:01.288Z,1014.17
2019-03-31T01:32:01.241Z,1014.15
2019-03-31T01:33:01.318Z,1014.14
2019-03-31T01:34:01.192Z,1014.20
2019-03-31T01:35:01.336Z,1014.16
2019-03-31T01:36:01.177Z,1014.16
2019-03-31T01:37:01.277Z,1014.14
2019-03-31T01:38:01.143Z,1014.13
2019-03-31T01:39:01.243Z,1014.17
2019-03-31T01:40:01.125Z,1014.14
2019-03-31T01:41:01.156Z,1014.09
2019-03-31T01:42:01.142Z,1014.12
2019-03-31T01:43:01.208Z,1014.16
2019-03-31T01:44:01.083Z,1014.15
2019-03-31T01:45:01.188Z,1014.17
2019-03-31T01:46:01.071Z,1014.18
2019-03-31T01:47:01.142Z,1014.20
2019-03-31T01:48:01.101Z,1014.23
2019-03-31T01:49:01.114Z,1014.27
2019-03-31T01:50:01.022Z,1014.27
2019-03-31T01:51:01.117Z,1014.25
2019-03-31T01:52:01.025Z,1014.24
2019-03-31T01:53:01.064Z,1014.26
2019-03-31T01:54:00.988Z,1014.26
2019-03-31T01:55:01.060Z,1014.29
2019-03-31T01:56:00.947Z,1014.30
2019-03-31T01:57:01.131Z,1014.30
2019-03-31T01:58:00.962Z,1014.30
2019-03-31T01:59:00.995Z,1014.37
2019-03-31T02:00:00.912Z,1014.36
2019-03-31T02:01:00.987Z,1014.34
2019-03-31T02:02:04.578Z,1014.36
2019-03-31T02:03:00.911Z,1014.35
2019-03-31T02:04:00.901Z,1014.30
2019-03-31T02:05:00.938Z,1014.38
2019-03-31T02:06:00.852Z,1014.37
2019-03-31T02:07:00.928Z,1014.32
2019-03-31T02:08:00.868Z,1014.30
2019-03-31T02:09:00.846Z,1014.36
2019-03-31T02:10:00.805Z,1014.34
2019-03-31T02:11:00.856Z,1014.30
2019-03-31T02:12:00.777Z,1014.41
2019-03-31T02:13:00.865Z,1014.30
2019-03-31T02:14:00.788Z,1014.34
2019-03-31T02:15:00.788Z,1014.33
2019-03-31T02:16:00.729Z,1014.29
2019-03-31T02:17:00.795Z,1014.28
2019-03-31T02:18:00.749Z,1014.29
2019-03-31T02:19:00.836Z,1014.28
2019-03-31T02:20:00.698Z,1014.30
2019-03-31T02:21:00.722Z,1014.25
2019-03-31T02:22:00.672Z,1014.33
2019-03-31T02:23:00.734Z,1014.30
2019-03-31T02:24:00.662Z,1014.29
2019-03-31T02:25:00.745Z,1014.35
2019-03-31T02:26:00.625Z,1014.34
2019-03-31T02:27:00.661Z,1014.44
2019-03-31T02:28:00.605Z,1014.45
2019-03-31T02:29:00.710Z,1014.44
2019-03-31T02:30:00.798Z,1014.42
2019-03-31T02:31:00.688Z,1014.41
2019-03-31T02:32:00.550Z,1014.42
2019-03-31T02:33:00.596Z,1014.42
2019-03-31T02:34:00.572Z,1014.41
2019-03-31T02:35:00.619Z,1014.47
2019-03-31T02:36:00.529Z,1014.44
2019-03-31T02:37:00.524Z,1014.44
2019-03-31T02:38:00.507Z,1014.53
2019-03-31T02:39:00.567Z,1014.50
2019-03-31T02:40:00.664Z,1014.46
2019-03-31T02:41:00.550Z,1014.47
2019-03-31T02:42:00.446Z,1014.49
2019-03-31T02:43:00.459Z,1014.43
2019-03-31T02:44:00.449Z,1014.42
2019-03-31T02:45:00.824Z,1014.47
2019-03-31T02:46:00.398Z,1014.47
2019-03-31T02:47:00.491Z,1014.45
2019-03-31T02:48:00.381Z,1014.42
2019-03-31T02:49:00.444Z,1014.51
2019-03-31T02:50:00.818Z,1014.48
2019-03-31T02:51:00.511Z,1014.48
2019-03-31T02:52:00.339Z,1014.50
2019-03-31T02:53:00.430Z,1014.50
2019-03-31T02:54:00.329Z,1014.43
2019-03-31T02:55:00.596Z,1014.48
2019-03-31T02:56:00.282Z,1014.46
2019-03-31T02:57:00.371Z,1014.47
2019-03-31T02:58:00.258Z,1014.41
2019-03-31T02:59:00.375Z,1014.50
2019-03-31T03:00:00.678Z,1014.46
2019-03-31T03:01:00.281Z,1014.48
2019-03-31T03:02:00.213Z,1014.44
2019-03-31T03:04:01.245Z,1014.40
2019-03-31T03:05:17.671Z,1014.40
2019-03-31T03:06:01.184Z,1014.38
2019-03-31T03:08:01.196Z,1014.39
2019-03-31T03:09:00.246Z,1014.41
2019-03-31T03:10:00.482Z,1014.38
2019-03-31T03:11:01.197Z,1014.46
2019-03-31T03:12:00.098Z,1014.49
2019-03-31T03:13:02.204Z,1014.45
2019-03-31T03:14:00.080Z,1014.51
2019-03-31T03:16:01.143Z,1014.57
2019-03-31T03:17:00.088Z,1014.56
2019-03-31T03:18:00.029Z,1014.58
2019-03-31T03:20:01.107Z,1014.62
2019-03-31T03:21:00.140Z,1014.63
2019-03-31T03:21:59.997Z,1014.65
2019-03-31T03:23:00.026Z,1014.62
2019-03-31T03:23:59.966Z,1014.65
2019-03-31T03:25:00.031Z,1014.66
2019-03-31T03:25:59.971Z,1014.63
2019-03-31T03:27:00.061Z,1014.65
2019-03-31T03:27:59.923Z,1014.65
2019-03-31T03:28:59.971Z,1014.70
2019-03-31T03:29:59.911Z,1014.69
2019-03-31T03:31:00.414Z,1014.64
2019-03-31T03:31:59.927Z,1014.59
2019-03-31T03:33:14.977Z,1014.60
2019-03-31T03:34:01.030Z,1014.68
2019-03-31T03:34:59.924Z,1014.60
2019-03-31T03:35:59.860Z,1014.62
2019-03-31T03:36:59.920Z,1014.66
2019-03-31T03:37:59.809Z,1014.63
2019-03-31T03:38:59.826Z,1014.65
2019-03-31T03:39:59.789Z,1014.66
2019-03-31T03:40:59.870Z,1014.69
2019-03-31T03:41:59.791Z,1014.71
2019-03-31T03:42:59.867Z,1014.74
2019-03-31T03:44:02.384Z,1014.71
2019-03-31T03:44:59.775Z,1014.75
2019-03-31T03:45:59.770Z,1014.74
2019-03-31T03:46:59.795Z,1014.75
2019-03-31T03:47:59.701Z,1014.80
2019-03-31T03:48:59.942Z,1014.73
2019-03-31T03:49:59.699Z,1014.76
2019-03-31T03:51:00.762Z,1014.73
2019-03-31T03:51:59.680Z,1014.77
2019-03-31T03:52:59.786Z,1014.79
2019-03-31T03:53:59.637Z,1014.76
2019-03-31T03:54:59.737Z,1014.72
2019-03-31T03:55:59.641Z,1014.80
2019-03-31T03:56:59.650Z,1014.77
2019-03-31T03:57:59.589Z,1014.73
2019-03-31T03:58:59.682Z,1014.80
2019-03-31T03:59:59.565Z,1014.85
2019-03-31T04:00:59.726Z,1014.88
2019-03-31T04:01:59.568Z,1014.83
2019-03-31T04:02:59.596Z,1014.84
2019-03-31T04:03:59.510Z,1014.87
2019-03-31T04:04:59.594Z,1014.89
2019-03-31T04:05:59.511Z,1014.93
2019-03-31T04:07:00.567Z,1014.96
2019-03-31T04:07:59.472Z,1015.01
2019-03-31T04:08:59.527Z,1014.97
2019-03-31T04:09:59.447Z,1015.00
2019-03-31T04:10:59.540Z,1014.95
2019-03-31T04:11:59.452Z,1014.93
2019-03-31T04:14:00.447Z,1015.03
2019-03-31T04:14:59.486Z,1014.98
2019-03-31T04:15:59.378Z,1014.95
2019-03-31T04:16:59.506Z,1014.94
2019-03-31T04:17:59.365Z,1014.93
2019-03-31T04:18:59.391Z,1014.90
2019-03-31T04:19:59.334Z,1014.89
2019-03-31T04:20:59.410Z,1014.88
2019-03-31T04:21:59.340Z,1014.97
2019-03-31T04:22:59.417Z,1014.87
2019-03-31T04:23:59.308Z,1014.94
2019-03-31T04:24:59.339Z,1014.95
2019-03-31T04:25:59.272Z,1014.93
2019-03-31T04:26:59.369Z,1014.93
2019-03-31T04:27:59.245Z,1014.95
2019-03-31T04:30:00.768Z,1014.92
2019-03-31T04:30:59.321Z,1014.96
2019-03-31T04:31:59.284Z,1014.95
2019-03-31T04:32:59.340Z,1014.92
2019-03-31T04:33:59.241Z,1014.93
2019-03-31T04:36:46.030Z,1014.98
2019-03-31T04:37:46.039Z,1014.98
2019-03-31T04:38:46.005Z,1014.98
2019-03-31T04:39:46.129Z,1015.01
2019-03-31T04:40:45.989Z,1014.99
2019-03-31T04:41:46.029Z,1015.00
2019-03-31T04:42:45.997Z,1015.10
2019-03-31T04:43:46.053Z,1015.06
2019-03-31T04:44:45.980Z,1015.05
2019-03-31T04:45:46.005Z,1015.07
2019-03-31T04:46:45.916Z,1015.06
2019-03-31T04:47:46.005Z,1015.08
2019-03-31T04:48:45.905Z,1015.08
2019-03-31T04:49:45.999Z,1015.10
2019-03-31T04:50:45.909Z,1015.14
2019-03-31T04:51:45.900Z,1015.11
2019-03-31T04:52:45.898Z,1015.18
2019-03-31T04:53:45.920Z,1015.22
2019-03-31T04:54:45.845Z,1015.14
2019-03-31T04:55:45.938Z,1015.17
2019-03-31T04:56:45.804Z,1015.21
2019-03-31T04:57:45.879Z,1015.22
2019-03-31T04:58:45.911Z,1015.25
2019-03-31T04:59:45.855Z,1015.25
2019-03-31T05:00:45.765Z,1015.28
2019-03-31T05:01:45.869Z,1015.23
2019-03-31T05:02:45.825Z,1015.27
2019-03-31T05:03:45.783Z,1015.35
2019-03-31T05:04:45.715Z,1015.34
2019-03-31T05:05:45.795Z,1015.37
2019-03-31T05:06:45.729Z,1015.40
2019-03-31T05:07:45.832Z,1015.36
2019-03-31T05:08:45.674Z,1015.36
2019-03-31T05:09:45.727Z,1015.42
2019-03-31T05:10:45.652Z,1015.45
2019-03-31T05:11:45.754Z,1015.43
2019-03-31T05:12:45.670Z,1015.50
2019-03-31T05:13:45.666Z,1015.48
2019-03-31T05:14:45.604Z,1015.54
2019-03-31T05:15:45.673Z,1015.50
2019-03-31T05:16:45.579Z,1015.54
2019-03-31T05:17:45.671Z,1015.53
2019-03-31T05:18:45.584Z,1015.54
2019-03-31T05:19:45.577Z,1015.53
2019-03-31T05:20:45.551Z,1015.59
2019-03-31T05:21:45.599Z,1015.61
2019-03-31T05:22:45.514Z,1015.64
2019-03-31T05:23:45.647Z,1015.66
2019-03-31T05:24:45.496Z,1015.70
2019-03-31T05:25:45.524Z,1015.73
2019-03-31T05:26:45.463Z,1015.73
2019-03-31T05:27:45.545Z,1015.74
2019-03-31T05:28:45.501Z,1015.75
2019-03-31T05:29:45.574Z,1015.75
2019-03-31T05:30:45.431Z,1015.71
2019-03-31T05:31:45.471Z,1015.70
2019-03-31T05:32:45.402Z,1015.72
2019-03-31T05:33:45.532Z,1015.80
2019-03-31T05:34:45.390Z,1015.79
2019-03-31T05:35:45.490Z,1015.85
2019-03-31T05:36:45.365Z,1015.78
2019-03-31T05:38:46.408Z,1015.84
2019-03-31T05:39:45.420Z,1015.83
2019-03-31T05:40:45.307Z,1015.81
2019-03-31T05:41:45.432Z,1015.86
2019-03-31T05:42:45.316Z,1015.88
2019-03-31T05:43:45.370Z,1015.88
2019-03-31T05:44:45.261Z,1015.89
2019-03-31T05:45:45.353Z,1015.88
2019-03-31T05:46:45.248Z,1015.89
2019-03-31T05:47:45.277Z,1015.88
2019-03-31T05:48:45.242Z,1015.91
2019-03-31T05:49:45.312Z,1016.01
2019-03-31T05:50:45.229Z,1015.98
2019-03-31T05:51:45.307Z,1016.10
2019-03-31T05:52:45.182Z,1016.13
2019-03-31T05:53:45.207Z,1016.13
2019-03-31T05:54:45.217Z,1016.14
2019-03-31T05:55:45.252Z,1016.19
2019-03-31T05:56:45.129Z,1016.17
2019-03-31T05:57:45.243Z,1016.19
2019-03-31T05:58:45.141Z,1016.26
2019-03-31T05:59:45.185Z,1016.21
2019-03-31T06:00:45.084Z,1016.34
2019-03-31T06:01:45.168Z,1016.23
2019-03-31T06:02:45.070Z,1016.27
2019-03-31T06:03:45.172Z,1016.22
2019-03-31T06:04:45.068Z,1016.29
2019-03-31T06:05:45.110Z,1016.31
2019-03-31T06:06:45.117Z,1016.34
2019-03-31T06:07:45.104Z,1016.35
2019-03-31T06:08:44.989Z,1016.35
2019-03-31T06:09:46.229Z,1016.39
2019-03-31T06:10:45.005Z,1016.40
2019-03-31T06:11:45.022Z,1016.45
2019-03-31T06:12:44.949Z,1016.41
2019-03-31T06:13:45.037Z,1016.40
2019-03-31T06:14:44.971Z,1016.37
2019-03-31T06:15:45.047Z,1016.42
2019-03-31T06:16:44.906Z,1016.47
2019-03-31T06:17:44.955Z,1016.45
2019-03-31T06:18:44.880Z,1016.47
2019-03-31T06:19:44.992Z,1016.47
2019-03-31T06:20:44.905Z,1016.55
2019-03-31T06:21:44.888Z,1016.51
2019-03-31T06:22:44.839Z,1016.50
2019-03-31T06:23:44.909Z,1016.45
2019-03-31T06:24:44.851Z,1016.56
2019-03-31T06:25:44.962Z,1016.55
2019-03-31T06:26:44.792Z,1016.49
2019-03-31T06:27:44.842Z,1016.56
2019-03-31T06:28:44.797Z,1016.48
2019-03-31T06:29:44.858Z,1016.54
2019-03-31T06:30:44.790Z,1016.61
2019-03-31T06:31:44.856Z,1016.65
2019-03-31T06:32:44.721Z,1016.57
2019-03-31T06:33:44.767Z,1016.61
2019-03-31T06:34:47.779Z,1016.63
2019-03-31T06:35:44.841Z,1016.63
2019-03-31T06:36:44.703Z,1016.68
2019-03-31T06:37:44.790Z,1016.61
2019-03-31T06:38:44.668Z,1016.71
2019-03-31T06:39:44.714Z,1016.65
2019-03-31T06:40:44.659Z,1016.71
2019-03-31T06:41:44.746Z,1016.72
2019-03-31T06:42:44.610Z,1016.83
2019-03-31T06:43:44.624Z,1016.80
2019-03-31T06:44:44.629Z,1016.81
2019-03-31T06:45:44.671Z,1016.77
2019-03-31T06:46:44.594Z,1016.78
2019-03-31T06:47:44.652Z,1016.88
2019-03-31T06:48:44.548Z,1016.87
2019-03-31T06:49:44.590Z,1016.80
2019-03-31T06:50:44.522Z,1016.89
2019-03-31T06:51:44.580Z,1016.86
2019-03-31T06:52:44.524Z,1016.85
2019-03-31T06:53:44.627Z,1016.84
2019-03-31T06:54:44.476Z,1016.92
2019-03-31T06:55:44.505Z,1016.93
2019-03-31T06:56:47.089Z,1017.05
2019-03-31T06:57:44.519Z,1016.94
2019-03-31T06:58:44.436Z,1016.92
2019-03-31T06:59:44.657Z,1017.01
2019-03-31T07:00:44.524Z,1016.99
2019-03-31T07:01:44.454Z,1017.01
2019-03-31T07:02:44.411Z,1017.04
2019-03-31T07:03:44.466Z,1017.00
2019-03-31T07:04:44.357Z,1017.07
2019-03-31T07:05:44.492Z,1017.04
2019-03-31T07:06:44.344Z,1017.04
2019-03-31T07:07:44.414Z,1017.12
2019-03-31T07:08:44.329Z,1017.13
2019-03-31T07:09:44.397Z,1017.06
2019-03-31T07:10:44.297Z,1017.08
2019-03-31T07:11:44.348Z,1017.14
2019-03-31T07:12:44.298Z,1017.13
2019-03-31T07:13:44.337Z,1017.14
2019-03-31T07:14:44.253Z,1017.16
2019-03-31T07:15:44.352Z,1017.17
2019-03-31T07:16:44.226Z,1017.18
2019-03-31T07:17:44.295Z,1017.16
2019-03-31T07:18:44.208Z,1017.17
2019-03-31T07:19:44.266Z,1017.16
2019-03-31T07:20:44.200Z,1017.11
2019-03-31T07:21:44.298Z,1017.10
2019-03-31T07:22:44.183Z,1017.19
2019-03-31T07:23:44.229Z,1017.14
2019-03-31T07:24:44.166Z,1017.13
2019-03-31T07:25:44.206Z,1017.21
2019-03-31T07:26:44.111Z,1017.19
2019-03-31T07:27:44.414Z,1017.17
2019-03-31T07:28:44.130Z,1017.20
2019-03-31T07:29:44.133Z,1017.18
2019-03-31T07:30:44.064Z,1017.21
2019-03-31T07:31:44.151Z,1017.21
2019-03-31T07:32:44.049Z,1017.27
2019-03-31T07:33:44.231Z,1017.16
2019-03-31T07:34:44.020Z,1017.11
2019-03-31T07:35:44.090Z,1017.17
2019-03-31T07:36:44.007Z,1017.17
2019-03-31T07:37:47.598Z,1017.15
2019-03-31T07:38:44.052Z,1017.15
2019-03-31T07:39:45.973Z,1017.16
2019-03-31T07:40:44.193Z,1017.21
2019-03-31T07:41:44.193Z,1017.21
2019-03-31T07:42:43.934Z,1017.18
2019-03-31T07:43:44.060Z,1017.19
2019-03-31T07:44:43.911Z,1017.27
2019-03-31T07:45:43.956Z,1017.24
2019-03-31T07:46:43.892Z,1017.20
2019-03-31T07:47:43.953Z,1017.25
2019-03-31T07:48:43.887Z,1017.26
2019-03-31T07:49:44.026Z,1017.27
2019-03-31T07:50:43.846Z,1017.23
2019-03-31T07:51:43.887Z,1017.27
2019-03-31T07:52:43.835Z,1017.20
2019-03-31T07:59:02.770Z,1017.16
2019-03-31T08:00:02.720Z,1017.26
2019-03-31T08:01:02.714Z,1017.17
2019-03-31T08:02:02.716Z,1017.21
2019-03-31T08:03:02.701Z,1017.20
2019-03-31T08:04:02.716Z,1017.20
2019-03-31T08:05:02.718Z,1017.23
2019-03-31T08:06:02.659Z,1017.23
2019-03-31T08:07:04.901Z,1017.25
2019-03-31T08:08:02.634Z,1017.20
2019-03-31T08:09:04.831Z,1017.20
2019-03-31T08:10:02.674Z,1017.28
2019-03-31T08:12:03.670Z,1017.28
2019-03-31T08:14:03.639Z,1017.25
2019-03-31T08:15:04.038Z,1017.18
2019-03-31T08:16:02.557Z,1017.20
2019-03-31T08:18:03.576Z,1017.26
2019-03-31T08:20:03.590Z,1017.33
2019-03-31T08:22:03.556Z,1017.30
2019-03-31T08:23:04.411Z,1017.36
2019-03-31T08:24:02.485Z,1017.38
2019-03-31T08:25:04.313Z,1017.30
2019-03-31T08:26:02.483Z,1017.34
2019-03-31T08:27:05.453Z,1017.41
2019-03-31T08:28:02.430Z,1017.44
2019-03-31T08:29:02.422Z,1017.49
2019-03-31T08:30:02.436Z,1017.51
2019-03-31T08:31:02.996Z,1017.49
2019-03-31T08:32:02.394Z,1017.55
2019-03-31T08:34:03.428Z,1017.58
2019-03-31T08:36:03.555Z,1017.57
2019-03-31T08:38:03.371Z,1017.59
2019-03-31T08:39:07.040Z,1017.62
2019-03-31T08:40:02.338Z,1017.62
2019-03-31T08:41:04.909Z,1017.62
2019-03-31T08:42:02.285Z,1017.63
2019-03-31T08:43:04.843Z,1017.62
2019-03-31T08:44:02.275Z,1017.66
2019-03-31T08:46:02.288Z,1017.66
2019-03-31T08:48:03.255Z,1017.64
2019-03-31T08:49:02.317Z,1017.67
2019-03-31T08:50:02.791Z,1017.72
2019-03-31T08:51:02.243Z,1017.75
2019-03-31T08:52:02.160Z,1017.71
2019-03-31T08:53:02.224Z,1017.72
2019-03-31T08:54:02.133Z,1017.76
2019-03-31T08:55:02.261Z,1017.68
2019-03-31T08:56:02.153Z,1017.80
2019-03-31T08:57:02.122Z,1017.82
2019-03-31T08:58:02.103Z,1017.82
2019-03-31T08:59:02.100Z,1017.76
2019-03-31T09:00:02.086Z,1017.80
2019-03-31T09:01:02.098Z,1017.81
2019-03-31T09:02:03.449Z,1017.80
2019-03-31T09:03:02.054Z,1017.83
2019-03-31T09:04:02.033Z,1017.88
2019-03-31T09:05:02.043Z,1017.87
2019-03-31T09:06:02.750Z,1018.00
2019-03-31T09:07:02.009Z,1018.02
2019-03-31T09:08:01.985Z,1017.95
2019-03-31T09:09:01.981Z,1018.00
2019-03-31T09:10:01.963Z,1017.96
2019-03-31T09:11:02.007Z,1017.98
2019-03-31T09:12:01.969Z,1017.96
2019-03-31T09:13:01.933Z,1017.97
2019-03-31T09:14:01.943Z,1018.02
2019-03-31T09:15:01.914Z,1017.99
2019-03-31T09:16:01.983Z,1018.07
2019-03-31T09:17:01.896Z,1018.07
2019-03-31T09:18:01.888Z,1018.00
2019-03-31T09:19:01.867Z,1018.04
2019-03-31T09:20:01.903Z,1018.05
2019-03-31T09:21:01.897Z,1017.99
2019-03-31T09:22:01.857Z,1018.00
2019-03-31T09:23:01.819Z,1017.98
2019-03-31T09:24:01.845Z,1018.02
2019-03-31T09:25:01.795Z,1018.03
2019-03-31T09:26:01.812Z,1018.00
2019-03-31T09:27:01.808Z,1018.01
2019-03-31T09:28:01.792Z,1018.02
2019-03-31T09:29:01.775Z,1018.11
2019-03-31T09:30:22.764Z,1018.07
2019-03-31T09:31:01.782Z,1018.07
2019-03-31T09:32:01.776Z,1018.13
2019-03-31T09:33:01.713Z,1018.13
2019-03-31T09:34:01.714Z,1018.12
2019-03-31T09:35:01.701Z,1018.16
2019-03-31T09:36:15.021Z,1018.14
2019-03-31T09:37:03.163Z,1018.19
2019-03-31T09:38:01.669Z,1018.21
2019-03-31T09:39:01.649Z,1018.22
2019-03-31T09:40:01.676Z,1018.27
2019-03-31T09:41:01.627Z,1018.26
2019-03-31T09:42:01.686Z,1018.23
2019-03-31T09:43:01.607Z,1018.21
2019-03-31T09:44:01.622Z,1018.19
2019-03-31T09:45:01.577Z,1018.25
2019-03-31T09:46:01.781Z,1018.16
2019-03-31T09:47:01.671Z,1018.27
2019-03-31T09:48:01.574Z,1018.28
2019-03-31T09:49:01.542Z,1018.25
2019-03-31T09:50:01.548Z,1018.21
2019-03-31T09:51:01.520Z,1018.22
2019-03-31T09:52:01.569Z,1018.15
2019-03-31T09:53:01.509Z,1018.21
2019-03-31T09:54:01.491Z,1018.18
2019-03-31T09:55:01.478Z,1018.20
2019-03-31T09:56:01.474Z,1018.24
2019-03-31T09:57:01.546Z,1018.21
2019-03-31T09:58:01.483Z,1018.21
2019-03-31T09:59:01.424Z,1018.18
2019-03-31T10:00:01.420Z,1018.18
2019-03-31T10:01:01.587Z,1018.23
2019-03-31T10:02:01.404Z,1018.14
2019-03-31T10:03:01.479Z,1018.18
2019-03-31T10:04:01.527Z,1018.16
2019-03-31T10:05:01.412Z,1018.19
2019-03-31T10:06:10.701Z,1018.21
2019-03-31T10:07:02.341Z,1018.22
2019-03-31T10:08:01.390Z,1018.20
2019-03-31T10:09:01.315Z,1018.17
2019-03-31T10:10:01.366Z,1018.17
2019-03-31T10:11:03.028Z,1018.22
2019-03-31T10:12:01.294Z,1018.20
2019-03-31T10:13:01.299Z,1018.17
2019-03-31T10:14:01.323Z,1018.13
2019-03-31T10:15:01.286Z,1018.19
2019-03-31T10:16:01.338Z,1018.22
2019-03-31T10:17:01.236Z,1018.23
2019-03-31T10:18:01.318Z,1018.22
2019-03-31T10:19:01.219Z,1018.24
2019-03-31T10:20:01.211Z,1018.22
2019-03-31T10:21:01.240Z,1018.17
2019-03-31T10:23:02.254Z,1018.17
2019-03-31T10:24:01.186Z,1018.34
2019-03-31T10:25:01.160Z,1018.25
2019-03-31T10:26:01.143Z,1018.26
2019-03-31T10:27:01.126Z,1018.33
2019-03-31T10:28:01.208Z,1018.21
2019-03-31T10:29:01.113Z,1018.24
2019-03-31T10:30:01.091Z,1018.22
2019-03-31T10:31:01.075Z,1018.27
2019-03-31T10:32:01.080Z,1018.31
2019-03-31T10:33:01.060Z,1018.29
2019-03-31T10:34:01.088Z,1018.25
2019-03-31T10:35:01.037Z,1018.28
2019-03-31T10:36:01.058Z,1018.32
2019-03-31T10:37:01.012Z,1018.27
2019-03-31T10:38:01.012Z,1018.26
2019-03-31T10:39:01.018Z,1018.34
2019-03-31T10:40:00.989Z,1018.26
2019-03-31T10:41:00.997Z,1018.24
2019-03-31T10:42:00.956Z,1018.26
2019-03-31T10:43:01.026Z,1018.33
2019-03-31T10:44:00.963Z,1018.27
2019-03-31T10:45:00.947Z,1018.31
2019-03-31T10:46:00.919Z,1018.31
2019-03-31T10:47:00.910Z,1018.31
2019-03-31T10:48:00.909Z,1018.34
2019-03-31T10:49:00.884Z,1018.35
2019-03-31T10:50:00.912Z,1018.39
2019-03-31T10:51:00.857Z,1018.29
2019-03-31T10:52:00.891Z,1018.37
2019-03-31T10:53:00.863Z,1018.33
2019-03-31T10:54:04.356Z,1018.34
2019-03-31T10:55:00.855Z,1018.38
2019-03-31T10:56:00.858Z,1018.35
2019-03-31T10:57:00.799Z,1018.36
2019-03-31T10:58:00.789Z,1018.41
2019-03-31T10:59:00.767Z,1018.36
2019-03-31T11:00:00.825Z,1018.35
2019-03-31T11:01:00.788Z,1018.35
2019-03-31T11:02:00.757Z,1018.31
2019-03-31T11:03:00.730Z,1018.33
2019-03-31T11:04:00.754Z,1018.35
2019-03-31T11:05:00.761Z,1018.31
2019-03-31T11:06:00.700Z,1018.32
2019-03-31T11:07:03.537Z,1018.36
2019-03-31T11:08:00.696Z,1018.34
2019-03-31T11:09:00.684Z,1018.37
2019-03-31T11:10:00.730Z,1018.36
2019-03-31T11:11:00.680Z,1018.27
2019-03-31T11:12:00.668Z,1018.35
2019-03-31T11:13:00.652Z,1018.29
2019-03-31T11:14:00.630Z,1018.32
2019-03-31T11:15:00.684Z,1018.32
2019-03-31T11:16:00.597Z,1018.26
2019-03-31T11:17:00.570Z,1018.40
2019-03-31T11:18:00.656Z,1018.34
2019-03-31T11:19:00.583Z,1018.34
2019-03-31T11:20:01.366Z,1018.39
2019-03-31T11:21:00.526Z,1018.39
2019-03-31T11:22:00.531Z,1018.37
2019-03-31T11:23:00.512Z,1018.35
2019-03-31T11:24:00.508Z,1018.33
2019-03-31T11:25:00.531Z,1018.37
2019-03-31T11:26:00.525Z,1018.37
2019-03-31T11:27:00.479Z,1018.39
2019-03-31T11:28:00.462Z,1018.25
2019-03-31T11:29:00.464Z,1018.32
2019-03-31T11:30:00.439Z,1018.40
2019-03-31T11:31:00.471Z,1018.33
2019-03-31T11:32:00.422Z,1018.43
2019-03-31T11:33:00.418Z,1018.34
2019-03-31T11:34:00.397Z,1018.42
2019-03-31T11:35:00.380Z,1018.44
2019-03-31T11:36:00.395Z,1018.39
2019-03-31T11:37:12.980Z,1018.39
2019-03-31T11:38:01.361Z,1018.39
2019-03-31T11:39:00.346Z,1018.43
2019-03-31T11:40:00.416Z,1018.46
2019-03-31T11:41:00.346Z,1018.40
2019-03-31T11:42:00.298Z,1018.36
2019-03-31T11:43:00.309Z,1018.40
2019-03-31T11:44:00.366Z,1018.43
2019-03-31T11:45:00.424Z,1018.38
2019-03-31T11:46:00.285Z,1018.42
2019-03-31T11:47:00.277Z,1018.38
2019-03-31T11:48:00.233Z,1018.30
2019-03-31T11:49:00.228Z,1018.26
2019-03-31T11:50:00.365Z,1018.26
2019-03-31T11:51:00.606Z,1018.30
2019-03-31T11:52:00.186Z,1018.31
2019-03-31T11:53:00.217Z,1018.39
2019-03-31T11:54:00.195Z,1018.34
2019-03-31T11:55:00.266Z,1018.34
2019-03-31T11:56:00.181Z,1018.37
2019-03-31T11:57:00.263Z,1018.34
2019-03-31T11:58:00.121Z,1018.41
2019-03-31T11:59:00.125Z,1018.33
2019-03-31T12:00:00.272Z,1018.31
2019-03-31T12:01:00.109Z,1018.28
2019-03-31T12:02:00.119Z,1018.32
2019-03-31T12:03:00.072Z,1018.29
2019-03-31T12:04:00.209Z,1018.33
2019-03-31T12:05:00.153Z,1018.29
2019-03-31T12:06:00.055Z,1018.38
2019-03-31T12:07:00.104Z,1018.34
2019-03-31T12:08:00.022Z,1018.37
2019-03-31T12:09:00.009Z,1018.42
2019-03-31T12:10:00.010Z,1018.35
2019-03-31T12:10:59.987Z,1018.37
2019-03-31T12:12:00.050Z,1018.33
2019-03-31T12:12:59.993Z,1018.28
2019-03-31T12:13:59.952Z,1018.31
2019-03-31T12:15:01.065Z,1018.38
2019-03-31T12:15:59.942Z,1018.33
2019-03-31T12:16:59.962Z,1018.35
2019-03-31T12:17:59.900Z,1018.30
2019-03-31T12:18:59.907Z,1018.31
2019-03-31T12:19:59.903Z,1018.37
2019-03-31T12:20:59.887Z,1018.34
2019-03-31T12:21:59.904Z,1018.34
2019-03-31T12:22:59.861Z,1018.33
2019-03-31T12:23:59.838Z,1018.31
2019-03-31T12:24:59.835Z,1018.32
2019-03-31T12:25:59.815Z,1018.32
2019-03-31T12:26:59.814Z,1018.28
2019-03-31T12:27:59.841Z,1018.20
2019-03-31T12:28:59.832Z,1018.27
2019-03-31T12:29:59.775Z,1018.28